createdAt,value
2023-04-15T00:01:48.487Z,93144.00
2023-04-15T00:04:20.575Z,93143.00
2023-04-15T00:06:54.805Z,93152.00
2023-04-15T00:09:22.079Z,93145.00
2023-04-15T00:11:50.435Z,93140.00
2023-04-15T00:14:17.436Z,93138.00
2023-04-15T00:16:44.529Z,93132.00
2023-04-15T00:19:11.377Z,93117.00
2023-04-15T00:21:38.964Z,93129.00
2023-04-15T00:24:05.946Z,93136.00
2023-04-15T00:26:33.176Z,93138.00
2023-04-15T00:29:00.202Z,93141.00
2023-04-15T00:31:27.406Z,93147.00
2023-04-15T00:33:56.803Z,93146.00
2023-04-15T00:36:28.336Z,93143.00
2023-04-15T00:38:55.122Z,93139.00
2023-04-15T00:41:23.035Z,93140.00
2023-04-15T00:43:50.151Z,93137.00
2023-04-15T00:46:20.723Z,93129.00
2023-04-15T00:48:53.863Z,93133.00
2023-04-15T00:51:20.934Z,93136.00
2023-04-15T00:53:51.874Z,93136.00
2023-04-15T00:56:24.397Z,93134.00
2023-04-15T00:58:55.094Z,93138.00
2023-04-15T01:01:27.941Z,93136.00
2023-04-15T01:03:58.766Z,93144.00
2023-04-15T01:06:28.326Z,93144.00
2023-04-15T01:08:56.218Z,93138.00
2023-04-15T01:11:24.272Z,93133.00
2023-04-15T01:13:55.117Z,93140.00
2023-04-15T01:16:22.173Z,93141.00
2023-04-15T01:18:52.183Z,93141.00
2023-04-15T01:21:21.983Z,93143.00
2023-04-15T01:23:51.604Z,93141.00
2023-04-15T01:26:18.884Z,93147.00
2023-04-15T01:28:48.963Z,93146.00
2023-04-15T01:31:16.383Z,93147.00
2023-04-15T01:33:43.719Z,93146.00
2023-04-15T01:36:13.552Z,93131.00
2023-04-15T01:38:41.185Z,93139.00
2023-04-15T01:41:08.209Z,93136.00
2023-04-15T01:43:41.236Z,93144.00
2023-04-15T01:46:08.252Z,93134.00
2023-04-15T01:48:35.304Z,93126.00
2023-04-15T01:51:02.158Z,93134.00
2023-04-15T01:53:29.491Z,93126.00
2023-04-15T01:55:56.405Z,93136.00
2023-04-15T01:58:23.275Z,93137.00
2023-04-15T02:00:50.166Z,93129.00
2023-04-15T02:03:18.137Z,93138.00
2023-04-15T02:05:51.065Z,93134.00
2023-04-15T02:08:17.872Z,93133.00
2023-04-15T02:10:44.733Z,93134.00
2023-04-15T02:13:11.587Z,93127.00
2023-04-15T02:15:38.498Z,93140.00
2023-04-15T02:18:08.176Z,93142.00
2023-04-15T02:20:36.289Z,93133.00
2023-04-15T02:23:03.199Z,93144.00
2023-04-15T02:25:32.360Z,93143.00
2023-04-15T02:28:01.686Z,93146.00
2023-04-15T02:30:30.842Z,93140.00
2023-04-15T02:32:57.762Z,93144.00
2023-04-15T02:35:29.803Z,93153.00
2023-04-15T02:37:58.780Z,93140.00
2023-04-15T02:40:28.226Z,93153.00
2023-04-15T02:42:57.611Z,93143.00
2023-04-15T02:45:28.114Z,93139.00
2023-04-15T02:47:55.355Z,93144.00
2023-04-15T02:50:23.609Z,93137.00
2023-04-15T02:52:52.742Z,93136.00
2023-04-15T02:55:19.751Z,93143.00
2023-04-15T02:57:46.619Z,93139.00
2023-04-15T03:00:14.187Z,93133.00
2023-04-15T03:02:42.354Z,93141.00
2023-04-15T03:05:14.908Z,93142.00
2023-04-15T03:07:44.214Z,93139.00
2023-04-15T03:10:14.036Z,93134.00
2023-04-15T03:12:40.995Z,93135.00
2023-04-15T03:15:09.642Z,93141.00
2023-04-15T03:17:36.699Z,93141.00
2023-04-15T03:20:05.592Z,93137.00
2023-04-15T03:22:33.314Z,93151.00
2023-04-15T03:25:00.472Z,93145.00
2023-04-15T03:27:27.336Z,93141.00
2023-04-15T03:29:56.861Z,93145.00
2023-04-15T03:32:23.822Z,93151.00
2023-04-15T03:34:50.744Z,93151.00
2023-04-15T03:37:19.824Z,93141.00
2023-04-15T03:39:46.891Z,93145.00
2023-04-15T03:42:18.363Z,93139.00
2023-04-15T03:44:48.278Z,93131.00
2023-04-15T03:47:15.186Z,93133.00
2023-04-15T03:49:44.632Z,93133.00
2023-04-15T03:52:13.760Z,93142.00
2023-04-15T03:54:40.675Z,93130.00
2023-04-15T03:57:07.655Z,93141.00
2023-04-15T03:59:36.730Z,93137.00
2023-04-15T04:02:03.694Z,93143.00
2023-04-15T04:04:30.649Z,93153.00
2023-04-15T04:06:57.680Z,93146.00
2023-04-15T04:09:27.808Z,93147.00
2023-04-15T04:11:57.858Z,93144.00
2023-04-15T04:14:29.778Z,93143.00
2023-04-15T04:16:59.225Z,93153.00
2023-04-15T04:19:29.980Z,93158.00
2023-04-15T04:21:57.034Z,93153.00
2023-04-15T04:24:23.941Z,93157.00
2023-04-15T04:26:51.090Z,93156.00
2023-04-15T04:29:17.987Z,93159.00
2023-04-15T04:31:44.953Z,93152.00
2023-04-15T04:34:12.139Z,93146.00
2023-04-15T04:36:39.017Z,93144.00
2023-04-15T04:39:05.848Z,93146.00
2023-04-15T04:41:32.657Z,93152.00
2023-04-15T04:43:59.896Z,93151.00
2023-04-15T04:46:29.109Z,93151.00
2023-04-15T04:48:55.945Z,93157.00
2023-04-15T04:51:23.249Z,93153.00
2023-04-15T04:53:50.099Z,93153.00
2023-04-15T04:56:17.023Z,93154.00
2023-04-15T04:58:46.683Z,93153.00
2023-04-15T05:01:16.736Z,93154.00
2023-04-15T05:03:43.681Z,93153.00
2023-04-15T05:06:10.666Z,93144.00
2023-04-15T05:08:39.197Z,93153.00
2023-04-15T05:11:07.342Z,93151.00
2023-04-15T05:13:34.299Z,93153.00
2023-04-15T05:16:03.261Z,93144.00
2023-04-15T05:18:30.634Z,93143.00
2023-04-15T05:20:58.050Z,93138.00
2023-04-15T05:23:25.009Z,93143.00
2023-04-15T05:25:52.117Z,93142.00
2023-04-15T05:28:19.075Z,93151.00
2023-04-15T05:30:46.192Z,93147.00
2023-04-15T05:33:15.821Z,93139.00
2023-04-15T05:35:42.636Z,93138.00
2023-04-15T05:38:11.751Z,93156.00
2023-04-15T05:40:40.801Z,93138.00
2023-04-15T05:43:07.834Z,93153.00
2023-04-15T05:45:36.919Z,93147.00
2023-04-15T05:48:04.086Z,93151.00
2023-04-15T05:50:30.968Z,93158.00
2023-04-15T05:52:57.881Z,93154.00
2023-04-15T05:55:24.860Z,93153.00
2023-04-15T05:57:52.178Z,93157.00
2023-04-15T06:00:19.233Z,93145.00
2023-04-15T06:02:46.294Z,93133.00
2023-04-15T06:05:13.725Z,93146.00
2023-04-15T06:07:40.849Z,93152.00
2023-04-15T06:10:08.568Z,93152.00
2023-04-15T06:12:35.907Z,93156.00
2023-04-15T06:15:02.865Z,93152.00
2023-04-15T06:17:31.979Z,93157.00
2023-04-15T06:20:01.433Z,93151.00
2023-04-15T06:22:28.299Z,93151.00
2023-04-15T06:24:55.738Z,93154.00
2023-04-15T06:27:23.207Z,93140.00
2023-04-15T06:29:50.131Z,93143.00
2023-04-15T06:32:16.940Z,93153.00
2023-04-15T06:34:46.118Z,93154.00
2023-04-15T06:37:16.245Z,93153.00
2023-04-15T06:39:47.975Z,93143.00
2023-04-15T06:42:20.283Z,93152.00
2023-04-15T06:44:47.163Z,93144.00
2023-04-15T06:47:14.783Z,93146.00
2023-04-15T06:49:43.060Z,93139.00
2023-04-15T06:52:13.596Z,93153.00
2023-04-15T06:54:42.810Z,93152.00
2023-04-15T06:57:12.270Z,93135.00
2023-04-15T06:59:39.180Z,93135.00
2023-04-15T07:02:07.866Z,93143.00
2023-04-15T07:04:36.865Z,93136.00
2023-04-15T07:07:03.867Z,93141.00
2023-04-15T07:09:31.288Z,93143.00
2023-04-15T07:12:00.464Z,93134.00
2023-04-15T07:14:33.994Z,93133.00
2023-04-15T07:17:00.932Z,93134.00
2023-04-15T07:19:27.844Z,93133.00
2023-04-15T07:21:54.684Z,93126.00
2023-04-15T07:24:26.719Z,93119.00
2023-04-15T07:26:59.465Z,93125.00
2023-04-15T07:29:30.035Z,93127.00
2023-04-15T07:31:57.328Z,93126.00
2023-04-15T07:34:24.645Z,93118.00
2023-04-15T07:36:52.005Z,93125.00
2023-04-15T07:39:19.168Z,93134.00
2023-04-15T07:41:46.614Z,93123.00
2023-04-15T07:44:13.720Z,93130.00
2023-04-15T07:46:40.814Z,93123.00
2023-04-15T07:49:10.192Z,93113.00
2023-04-15T07:51:41.785Z,93120.00
2023-04-15T07:54:10.834Z,93125.00
2023-04-15T07:56:37.725Z,93128.00
2023-04-15T07:59:06.086Z,93130.00
2023-04-15T08:01:33.161Z,93119.00
2023-04-15T08:04:00.439Z,93132.00
2023-04-15T08:06:32.978Z,93127.00
2023-04-15T08:09:00.148Z,93127.00
2023-04-15T08:11:27.766Z,93115.00
2023-04-15T08:13:54.759Z,93122.00
2023-04-15T08:16:24.777Z,93121.00
2023-04-15T08:18:57.066Z,93127.00
2023-04-15T08:21:27.676Z,93130.00
2023-04-15T08:23:57.029Z,93125.00
2023-04-15T08:26:24.174Z,93128.00
2023-04-15T08:28:51.381Z,93126.00
2023-04-15T08:31:19.533Z,93122.00
2023-04-15T08:33:46.750Z,93119.00
2023-04-15T08:36:16.296Z,93114.00
2023-04-15T08:38:44.746Z,93125.00
2023-04-15T08:41:40.707Z,93121.00
2023-04-15T08:44:12.842Z,93122.00
2023-04-15T08:46:42.531Z,93119.00
2023-04-15T08:49:13.216Z,93107.00
2023-04-15T08:51:43.781Z,93108.00
2023-04-15T08:54:11.440Z,93109.00
2023-04-15T08:56:39.525Z,93117.00
2023-04-15T08:59:07.162Z,93117.00
2023-04-15T09:01:34.353Z,93098.00
2023-04-15T09:04:03.548Z,93100.00
2023-04-15T09:06:30.405Z,93114.00
2023-04-15T09:08:59.654Z,93114.00
2023-04-15T09:11:31.466Z,93103.00
2023-04-15T09:13:58.444Z,93109.00
2023-04-15T09:16:28.449Z,93105.00
2023-04-15T09:18:57.796Z,93108.00
2023-04-15T09:21:27.807Z,93112.00
2023-04-15T09:24:02.462Z,93109.00
2023-04-15T09:26:35.690Z,93112.00
2023-04-15T09:29:13.572Z,93117.00
2023-04-15T09:31:41.824Z,93118.00
2023-04-15T09:34:09.076Z,93122.00
2023-04-15T09:36:57.088Z,93122.00
2023-04-15T09:39:24.192Z,93118.00
2023-04-15T09:42:08.204Z,93119.00
2023-04-15T09:44:38.273Z,93112.00
2023-04-15T09:47:07.428Z,93125.00
2023-04-15T09:49:34.412Z,93121.00
2023-04-15T09:52:06.344Z,93123.00
2023-04-15T09:54:38.757Z,93133.00
2023-04-15T09:57:10.220Z,93130.00
2023-04-15T09:59:39.600Z,93121.00
2023-04-15T10:02:09.310Z,93132.00
2023-04-15T10:04:40.786Z,93137.00
2023-04-15T10:07:12.257Z,93138.00
2023-04-15T10:09:39.840Z,93139.00
2023-04-15T10:12:07.369Z,93138.00
2023-04-15T10:14:38.846Z,93139.00
2023-04-15T10:17:06.466Z,93134.00
2023-04-15T10:19:37.233Z,93133.00
2023-04-15T10:22:04.792Z,93140.00
2023-04-15T10:24:34.413Z,93127.00
2023-04-15T10:27:07.473Z,93142.00
2023-04-15T10:29:37.680Z,93134.00
2023-04-15T10:32:07.510Z,93135.00
2023-04-15T10:34:35.021Z,93134.00
2023-04-15T10:37:03.920Z,93147.00
2023-04-15T10:39:36.436Z,93144.00
2023-04-15T10:42:12.862Z,93141.00
2023-04-15T10:44:45.305Z,93141.00
2023-04-15T10:47:20.522Z,93140.00
2023-04-15T10:49:59.555Z,93146.00
2023-04-15T10:52:33.043Z,93151.00
2023-04-15T10:55:25.759Z,93153.00
2023-04-15T10:58:03.200Z,93155.00
2023-04-15T11:00:32.969Z,93147.00
2023-04-15T11:03:05.717Z,93154.00
2023-04-15T11:05:42.033Z,93156.00
2023-04-15T11:08:13.608Z,93161.00
2023-04-15T11:10:40.406Z,93167.00
2023-04-15T11:13:09.970Z,93172.00
2023-04-15T11:15:47.114Z,93173.00
2023-04-15T11:18:19.733Z,93168.00
2023-04-15T11:20:52.507Z,93169.00
2023-04-15T11:23:30.726Z,93174.00
2023-04-15T11:25:59.976Z,93180.00
2023-04-15T11:28:31.205Z,93181.00
2023-04-15T11:30:59.240Z,93173.00
2023-04-15T11:33:29.309Z,93175.00
2023-04-15T11:35:56.170Z,93182.00
2023-04-15T11:38:23.004Z,93176.00
2023-04-15T11:40:56.207Z,93192.00
2023-04-15T11:43:23.868Z,93189.00
2023-04-15T11:45:58.819Z,93192.00
2023-04-15T11:48:34.196Z,93183.00
2023-04-15T11:51:07.431Z,93191.00
2023-04-15T11:53:48.224Z,93199.00
2023-04-15T11:56:26.007Z,93194.00
2023-04-15T11:58:57.166Z,93205.00
2023-04-15T12:01:39.342Z,93209.00
2023-04-15T12:04:22.422Z,93214.00
2023-04-15T12:06:51.922Z,93230.00
2023-04-15T12:09:20.342Z,93231.00
2023-04-15T12:11:58.338Z,93235.00
2023-04-15T12:14:30.086Z,93238.00
2023-04-15T12:17:08.135Z,93243.00
2023-04-15T12:19:48.365Z,93240.00
2023-04-15T12:22:17.311Z,93236.00
2023-04-15T12:24:47.939Z,93245.00
2023-04-15T12:27:17.668Z,93245.00
2023-04-15T12:29:44.685Z,93252.00
2023-04-15T12:32:21.440Z,93247.00
2023-04-15T12:34:53.337Z,93250.00
2023-04-15T12:37:23.125Z,93250.00
2023-04-15T12:39:50.872Z,93251.00
2023-04-15T12:42:18.869Z,93260.00
2023-04-15T12:44:46.942Z,93253.00
2023-04-15T12:47:14.541Z,93261.00
2023-04-15T12:49:41.751Z,93268.00
2023-04-15T12:52:08.960Z,93268.00
2023-04-15T12:54:36.329Z,93275.00
2023-04-15T12:57:06.976Z,93285.00
2023-04-15T12:59:35.562Z,93288.00
2023-04-15T13:02:03.309Z,93294.00
2023-04-15T13:04:31.336Z,93293.00
2023-04-15T13:06:58.544Z,93290.00
2023-04-15T13:09:25.860Z,93299.00
2023-04-15T13:11:53.088Z,93296.00
2023-04-15T13:14:22.238Z,93297.00
2023-04-15T13:16:53.852Z,93301.00
2023-04-15T13:19:20.681Z,93311.00
2023-04-15T13:21:47.643Z,93311.00
2023-04-15T13:24:14.506Z,93313.00
2023-04-15T13:26:41.965Z,93313.00
2023-04-15T13:29:08.896Z,93312.00
2023-04-15T13:31:35.823Z,93306.00
2023-04-15T13:34:03.059Z,93323.00
2023-04-15T13:36:32.264Z,93320.00
2023-04-15T13:39:01.513Z,93325.00
2023-04-15T13:41:28.350Z,93322.00
2023-04-15T13:43:58.343Z,93328.00
2023-04-15T13:46:26.156Z,93325.00
2023-04-15T13:48:53.343Z,93321.00
2023-04-15T13:51:24.784Z,93326.00
2023-04-15T13:53:51.665Z,93325.00
2023-04-15T13:56:24.099Z,93324.00
2023-04-15T13:58:53.102Z,93326.00
2023-04-15T14:01:20.024Z,93341.00
2023-04-15T14:03:46.973Z,93341.00
2023-04-15T14:06:13.974Z,93333.00
2023-04-15T14:08:43.710Z,93344.00
2023-04-15T14:11:12.763Z,93344.00
2023-04-15T14:13:39.689Z,93343.00
2023-04-15T14:16:06.847Z,93348.00
2023-04-15T14:18:37.438Z,93350.00
2023-04-15T14:21:08.992Z,93351.00
2023-04-15T14:23:35.772Z,93356.00
2023-04-15T14:26:02.660Z,93364.00
2023-04-15T14:28:29.943Z,93363.00
2023-04-15T14:30:59.007Z,93367.00
2023-04-15T14:33:28.927Z,93374.00
2023-04-15T14:35:56.133Z,93372.00
2023-04-15T14:38:23.047Z,93374.00
2023-04-15T14:40:52.328Z,93381.00
2023-04-15T14:43:21.781Z,93386.00
2023-04-15T14:45:48.737Z,93388.00
2023-04-15T14:48:16.308Z,93392.00
2023-04-15T14:50:47.707Z,93389.00
2023-04-15T14:53:17.156Z,93392.00
2023-04-15T14:55:45.017Z,93391.00
2023-04-15T14:58:15.355Z,93398.00
2023-04-15T15:00:44.947Z,93400.00
2023-04-15T15:03:13.222Z,93407.00
2023-04-15T15:05:51.097Z,93408.00
2023-04-15T15:08:18.066Z,93407.00
2023-04-15T15:10:48.039Z,93412.00
2023-04-15T15:13:17.015Z,93419.00
2023-04-15T15:15:44.024Z,93425.00
2023-04-15T15:18:11.464Z,93433.00
2023-04-15T15:20:38.536Z,93432.00
2023-04-15T15:23:05.436Z,93440.00
2023-04-15T15:25:34.888Z,93429.00
2023-04-15T15:28:06.782Z,93426.00
2023-04-15T15:30:33.723Z,93439.00
2023-04-15T15:33:02.932Z,93434.00
2023-04-15T15:35:32.428Z,93443.00
2023-04-15T15:38:01.550Z,93437.00
2023-04-15T15:40:31.212Z,93446.00
2023-04-15T15:42:58.100Z,93447.00
2023-04-15T15:45:27.145Z,93448.00
2023-04-15T15:47:54.405Z,93449.00
2023-04-15T15:50:21.426Z,93448.00
2023-04-15T15:52:52.944Z,93453.00
2023-04-15T15:55:19.749Z,93457.00
2023-04-15T15:57:46.677Z,93460.00
2023-04-15T16:00:14.317Z,93460.00
2023-04-15T16:05:13.505Z,93471.00
2023-04-15T16:07:40.457Z,93479.00
2023-04-15T16:10:08.668Z,93470.00
2023-04-15T16:12:35.648Z,93482.00
2023-04-15T16:15:03.823Z,93470.00
2023-04-15T16:17:30.731Z,93483.00
2023-04-15T16:20:00.845Z,93490.00
2023-04-15T16:22:28.314Z,93494.00
2023-04-15T16:24:58.665Z,93502.00
2023-04-15T16:27:27.709Z,93503.00
2023-04-15T16:29:54.593Z,93502.00
2023-04-15T16:32:21.684Z,93509.00
2023-04-15T16:34:48.727Z,93508.00
2023-04-15T16:37:15.918Z,93519.00
2023-04-15T16:39:42.842Z,93518.00
2023-04-15T16:42:12.739Z,93520.00
2023-04-15T16:44:39.687Z,93535.00
2023-04-15T16:47:06.878Z,93531.00
2023-04-15T16:49:36.017Z,93542.00
2023-04-15T16:52:03.212Z,93547.00
2023-04-15T16:54:30.130Z,93548.00
2023-04-15T16:57:02.007Z,93548.00
2023-04-15T16:59:31.133Z,93552.00
2023-04-15T17:01:58.313Z,93561.00
2023-04-15T17:04:25.853Z,93561.00
2023-04-15T17:06:52.779Z,93572.00
2023-04-15T17:09:19.627Z,93584.00
2023-04-15T17:11:49.523Z,93588.00
2023-04-15T17:14:20.966Z,93598.00
2023-04-15T17:16:50.022Z,93604.00
2023-04-15T17:19:16.902Z,93616.00
2023-04-15T17:21:43.776Z,93615.00
2023-04-15T17:24:12.938Z,93619.00
2023-04-15T17:26:39.811Z,93632.00
2023-04-15T17:29:07.013Z,93630.00
2023-04-15T17:31:36.464Z,93643.00
2023-04-15T17:34:09.239Z,93652.00
2023-04-15T17:36:37.908Z,93640.00
2023-04-15T17:39:05.165Z,93649.00
2023-04-15T17:41:35.023Z,93655.00
2023-04-15T17:44:02.115Z,93652.00
2023-04-15T17:46:33.708Z,93651.00
2023-04-15T17:49:00.623Z,93651.00
2023-04-15T17:51:29.834Z,93663.00
2023-04-15T17:53:59.028Z,93670.00
2023-04-15T17:56:27.477Z,93658.00
2023-04-15T17:59:02.526Z,93671.00
2023-04-15T18:01:35.346Z,93673.00
2023-04-15T18:04:02.540Z,93655.00
2023-04-15T18:06:29.759Z,93666.00
2023-04-15T18:08:56.794Z,93675.00
2023-04-15T18:11:24.032Z,93683.00
2023-04-15T18:13:50.950Z,93688.00
2023-04-15T18:16:17.921Z,93693.00
2023-04-15T18:18:47.094Z,93700.00
2023-04-15T18:21:18.973Z,93705.00
2023-04-15T18:23:46.050Z,93716.00
2023-04-15T18:26:17.754Z,93719.00
2023-04-15T18:28:51.823Z,93720.00
2023-04-15T18:31:18.708Z,93729.00
2023-04-15T18:33:45.668Z,93740.00
2023-04-15T18:36:12.727Z,93734.00
2023-04-15T18:38:39.747Z,93735.00
2023-04-15T18:41:08.276Z,93744.00
2023-04-15T18:43:38.877Z,93750.00
2023-04-15T18:46:12.485Z,93751.00
2023-04-15T18:48:39.408Z,93760.00
2023-04-15T18:51:08.524Z,93759.00
2023-04-15T18:53:35.637Z,93772.00
2023-04-15T18:56:03.399Z,93771.00
2023-04-15T18:59:09.261Z,93769.00
2023-04-15T19:01:21.918Z,93783.00
2023-04-15T19:03:51.406Z,93790.00
2023-04-15T19:06:22.210Z,93796.00
2023-04-15T19:08:49.276Z,93806.00
2023-04-15T19:11:18.606Z,93811.00
2023-04-15T19:13:45.587Z,93809.00
2023-04-15T19:16:15.461Z,93803.00
2023-04-15T19:18:42.986Z,93811.00
2023-04-15T19:21:12.823Z,93819.00
2023-04-15T19:23:42.972Z,93824.00
2023-04-15T19:26:11.371Z,93828.00
2023-04-15T19:28:38.227Z,93837.00
2023-04-15T19:31:05.381Z,93836.00
2023-04-15T19:33:34.401Z,93839.00
2023-04-15T19:36:06.482Z,93843.00
2023-04-15T19:38:37.782Z,93857.00
2023-04-15T19:41:10.454Z,93835.00
2023-04-15T19:43:39.434Z,93849.00
2023-04-15T19:46:07.337Z,93854.00
2023-04-15T19:48:37.664Z,93855.00
2023-04-15T19:51:04.819Z,93862.00
2023-04-15T19:53:31.704Z,93863.00
2023-04-15T19:55:58.741Z,93862.00
2023-04-15T19:58:27.717Z,93854.00
2023-04-15T20:00:54.717Z,93867.00
2023-04-15T20:03:21.819Z,93880.00
2023-04-15T20:05:53.395Z,93875.00
2023-04-15T20:08:22.542Z,93875.00
2023-04-15T20:10:49.444Z,93873.00
2023-04-15T20:13:18.620Z,93875.00
2023-04-15T20:15:45.630Z,93878.00
2023-04-15T20:18:12.599Z,93880.00
2023-04-15T20:20:40.384Z,93877.00
2023-04-15T20:23:07.204Z,93883.00
2023-04-15T20:25:34.066Z,93876.00
2023-04-15T20:28:03.237Z,93881.00
2023-04-15T20:30:30.409Z,93882.00
2023-04-15T20:33:02.264Z,93881.00
2023-04-15T20:35:30.878Z,93878.00
2023-04-15T20:38:00.804Z,93877.00
2023-04-15T20:40:28.395Z,93871.00
2023-04-15T20:42:55.992Z,93880.00
2023-04-15T20:45:22.875Z,93872.00
2023-04-15T20:47:49.839Z,93875.00
2023-04-15T20:50:16.848Z,93878.00
2023-04-15T20:52:46.252Z,93875.00
2023-04-15T20:55:13.246Z,93880.00
2023-04-15T20:57:40.389Z,93877.00
2023-04-15T21:00:11.082Z,93875.00
2023-04-15T21:02:38.534Z,93882.00
2023-04-15T21:05:06.250Z,93882.00
2023-04-15T21:07:35.616Z,93889.00
2023-04-15T21:10:05.421Z,93872.00
2023-04-15T21:12:37.485Z,93887.00
2023-04-15T21:15:07.548Z,93889.00
2023-04-15T21:17:35.453Z,93891.00
2023-04-15T21:20:02.839Z,93898.00
2023-04-15T21:22:32.362Z,93905.00
2023-04-15T21:25:02.302Z,93895.00
2023-04-15T21:27:29.492Z,93897.00
2023-04-15T21:29:56.400Z,93896.00
2023-04-15T21:32:26.005Z,93898.00
2023-04-15T21:34:52.918Z,93892.00
2023-04-15T21:37:22.856Z,93903.00
2023-04-15T21:39:49.696Z,93904.00
2023-04-15T21:42:16.723Z,93912.00
2023-04-15T21:44:47.983Z,93904.00
2023-04-15T21:47:17.556Z,93891.00
2023-04-15T21:49:44.763Z,93909.00
2023-04-15T21:52:13.830Z,93911.00
2023-04-15T21:54:43.169Z,93910.00
2023-04-15T21:57:14.597Z,93907.00
2023-04-15T21:59:41.488Z,93912.00
2023-04-15T22:02:11.582Z,93903.00
2023-04-15T22:04:38.560Z,93897.00
2023-04-15T22:07:05.869Z,93914.00
2023-04-15T22:09:33.160Z,93914.00
2023-04-15T22:12:04.249Z,93906.00
2023-04-15T22:14:31.249Z,93912.00
2023-04-15T22:16:58.258Z,93922.00
2023-04-15T22:19:27.534Z,93916.00
2023-04-15T22:21:56.820Z,93923.00
2023-04-15T22:24:33.540Z,93924.00
2023-04-15T22:27:07.231Z,93931.00
2023-04-15T22:29:34.628Z,93927.00
2023-04-15T22:32:07.101Z,93937.00
2023-04-15T22:34:37.177Z,93939.00
2023-04-15T22:37:06.304Z,93942.00
2023-04-15T22:39:35.848Z,93935.00
2023-04-15T22:42:03.208Z,93944.00
2023-04-15T22:44:30.039Z,93949.00
2023-04-15T22:46:59.042Z,93951.00
2023-04-15T22:49:26.444Z,93952.00
2023-04-15T22:51:55.938Z,93957.00
2023-04-15T22:54:22.856Z,93950.00
2023-04-15T22:56:51.874Z,93954.00
2023-04-15T22:59:19.969Z,93956.00
2023-04-15T23:01:46.909Z,93953.00
2023-04-15T23:04:26.085Z,93964.00
2023-04-15T23:06:57.251Z,93967.00
2023-04-15T23:09:28.746Z,93960.00
2023-04-15T23:11:56.768Z,93951.00
2023-04-15T23:14:23.865Z,93968.00
2023-04-15T23:16:53.158Z,93961.00
2023-04-15T23:19:20.020Z,93965.00
2023-04-15T23:21:46.910Z,93967.00
2023-04-15T23:24:13.861Z,93969.00
2023-04-15T23:26:43.456Z,93962.00
2023-04-15T23:29:10.614Z,93970.00
2023-04-15T23:31:37.691Z,93974.00
2023-04-15T23:34:04.543Z,93969.00
2023-04-15T23:36:32.012Z,93976.00
2023-04-15T23:39:01.455Z,93971.00
2023-04-15T23:41:30.803Z,93979.00
2023-04-15T23:43:59.946Z,93978.00
2023-04-15T23:46:27.215Z,93979.00
2023-04-15T23:48:57.280Z,93982.00
2023-04-15T23:51:24.735Z,93975.00
2023-04-15T23:53:52.414Z,93980.00
2023-04-15T23:56:23.839Z,93974.00
2023-04-15T23:58:50.765Z,93974.00
